createdAt,value
2024-03-16T00:01:02.054Z,35.91
2024-03-16T00:03:30.010Z,35.93
2024-03-16T00:05:57.682Z,35.94
2024-03-16T00:08:24.966Z,36.12
2024-03-16T00:10:52.056Z,35.88
2024-03-16T00:13:18.773Z,35.92
2024-03-16T00:15:51.023Z,35.77
2024-03-16T00:18:18.048Z,36.01
2024-03-16T00:20:45.084Z,35.92
2024-03-16T00:23:11.759Z,35.64
2024-03-16T00:25:38.639Z,36.05
2024-03-16T00:28:05.942Z,35.87
2024-03-16T00:30:32.835Z,35.91
2024-03-16T00:32:59.729Z,35.92
2024-03-16T00:35:27.551Z,35.81
2024-03-16T00:37:55.408Z,35.64
2024-03-16T00:40:22.178Z,35.67
2024-03-16T00:42:49.022Z,35.89
2024-03-16T00:45:15.643Z,35.73
2024-03-16T00:47:42.389Z,35.52
2024-03-16T00:50:09.306Z,35.76
2024-03-16T00:52:54.587Z,35.66
2024-03-16T00:55:21.227Z,35.61
2024-03-16T00:57:47.902Z,35.61
2024-03-16T01:00:15.886Z,35.51
2024-03-16T01:02:43.195Z,35.44
2024-03-16T01:05:10.273Z,35.61
2024-03-16T01:07:37.181Z,35.54
2024-03-16T01:10:04.672Z,35.47
2024-03-16T01:12:31.367Z,35.53
2024-03-16T01:14:58.588Z,35.59
2024-03-16T01:17:25.571Z,35.46
2024-03-16T01:19:52.258Z,35.50
2024-03-16T01:22:19.061Z,35.63
2024-03-16T01:24:45.845Z,35.59
2024-03-16T01:27:12.481Z,35.57
2024-03-16T01:29:39.307Z,35.37
2024-03-16T01:32:09.603Z,35.51
2024-03-16T01:34:36.813Z,35.37
2024-03-16T01:37:03.737Z,35.41
2024-03-16T01:39:30.908Z,35.63
2024-03-16T01:41:57.833Z,35.49
2024-03-16T01:44:24.675Z,35.60
2024-03-16T01:46:51.483Z,35.26
2024-03-16T01:49:18.140Z,35.29
2024-03-16T01:51:44.809Z,35.31
2024-03-16T01:54:11.837Z,35.17
2024-03-16T01:56:38.654Z,35.56
2024-03-16T01:59:05.377Z,35.40
2024-03-16T02:01:32.728Z,35.25
2024-03-16T02:03:59.756Z,35.52
2024-03-16T02:06:28.383Z,35.37
2024-03-16T02:08:55.405Z,35.43
2024-03-16T02:11:23.136Z,35.19
2024-03-16T02:13:50.365Z,35.08
2024-03-16T02:16:17.162Z,35.42
2024-03-16T02:18:44.193Z,35.11
2024-03-16T02:21:11.699Z,35.50
2024-03-16T02:23:40.888Z,35.14
2024-03-16T02:26:08.749Z,35.20
2024-03-16T02:28:35.693Z,35.19
2024-03-16T02:31:02.711Z,35.12
2024-03-16T02:33:29.893Z,35.37
2024-03-16T02:35:56.837Z,35.21
2024-03-16T02:38:24.014Z,35.31
2024-03-16T02:40:50.784Z,35.38
2024-03-16T02:43:17.589Z,35.18
2024-03-16T02:45:44.375Z,35.34
2024-03-16T02:48:12.481Z,35.24
2024-03-16T02:50:39.283Z,35.18
2024-03-16T02:53:05.905Z,35.08
2024-03-16T02:55:32.485Z,35.45
2024-03-16T02:57:59.982Z,35.38
2024-03-16T03:00:28.208Z,35.36
2024-03-16T03:02:54.973Z,35.06
2024-03-16T03:05:23.738Z,35.31
2024-03-16T03:07:50.692Z,35.23
2024-03-16T03:10:18.020Z,35.24
2024-03-16T03:12:46.194Z,35.19
2024-03-16T03:15:13.040Z,35.35
2024-03-16T03:17:40.572Z,35.08
2024-03-16T03:20:10.328Z,35.29
2024-03-16T03:22:37.468Z,35.28
2024-03-16T03:25:04.986Z,35.43
2024-03-16T03:27:32.076Z,35.14
2024-03-16T03:29:58.793Z,35.21
2024-03-16T03:32:25.640Z,35.43
2024-03-16T03:34:52.358Z,35.18
2024-03-16T03:37:19.118Z,35.44
2024-03-16T03:39:47.689Z,35.35
2024-03-16T03:42:15.864Z,35.22
2024-03-16T03:44:51.306Z,35.15
2024-03-16T03:47:18.348Z,35.26
2024-03-16T03:49:51.850Z,35.04
2024-03-16T03:52:19.074Z,35.00
2024-03-16T03:54:46.076Z,35.15
2024-03-16T03:57:12.819Z,35.33
2024-03-16T03:59:39.501Z,35.30
2024-03-16T04:02:06.241Z,35.00
2024-03-16T04:04:32.884Z,35.10
2024-03-16T04:06:59.667Z,34.97
2024-03-16T04:09:26.458Z,35.51
2024-03-16T04:11:53.157Z,34.97
2024-03-16T04:14:20.656Z,35.05
2024-03-16T04:16:49.338Z,34.96
2024-03-16T04:19:17.380Z,35.20
2024-03-16T04:21:45.027Z,35.18
2024-03-16T04:24:11.823Z,35.34
2024-03-16T04:26:39.031Z,35.23
2024-03-16T04:29:07.079Z,35.27
2024-03-16T04:31:34.010Z,35.05
2024-03-16T04:34:00.839Z,35.23
2024-03-16T04:36:27.685Z,34.88
2024-03-16T04:38:54.315Z,35.29
2024-03-16T04:41:21.124Z,35.22
2024-03-16T04:43:48.519Z,34.91
2024-03-16T04:46:15.836Z,35.27
2024-03-16T04:48:42.608Z,34.91
2024-03-16T04:51:09.497Z,35.11
2024-03-16T04:53:36.177Z,35.12
2024-03-16T04:56:03.099Z,35.13
2024-03-16T04:58:29.967Z,35.08
2024-03-16T05:00:56.704Z,35.46
2024-03-16T05:03:23.493Z,35.30
2024-03-16T05:05:53.021Z,35.38
2024-03-16T05:08:19.608Z,35.34
2024-03-16T05:10:53.244Z,35.13
2024-03-16T05:13:20.014Z,35.30
2024-03-16T05:15:46.743Z,35.16
2024-03-16T05:18:15.534Z,35.08
2024-03-16T05:20:42.732Z,35.21
2024-03-16T05:23:09.605Z,35.24
2024-03-16T05:25:36.324Z,34.97
2024-03-16T05:28:03.233Z,35.12
2024-03-16T05:30:30.186Z,35.10
2024-03-16T05:32:57.207Z,35.09
2024-03-16T05:35:29.306Z,35.34
2024-03-16T05:37:56.513Z,35.08
2024-03-16T05:40:23.521Z,35.33
2024-03-16T05:42:50.329Z,35.25
2024-03-16T05:45:17.292Z,35.38
2024-03-16T05:47:44.793Z,35.27
2024-03-16T05:50:11.487Z,35.01
2024-03-16T05:52:38.987Z,35.26
2024-03-16T05:55:06.249Z,35.04
2024-03-16T05:57:33.025Z,35.31
2024-03-16T05:59:59.701Z,35.11
2024-03-16T06:02:27.978Z,35.36
2024-03-16T06:04:54.640Z,35.44
2024-03-16T06:07:21.776Z,35.17
2024-03-16T06:09:48.563Z,35.53
2024-03-16T06:12:15.317Z,35.23
2024-03-16T06:14:41.929Z,35.53
2024-03-16T06:17:08.629Z,35.20
2024-03-16T06:19:35.220Z,35.34
2024-03-16T06:22:03.769Z,35.45
2024-03-16T06:24:32.047Z,35.28
2024-03-16T06:27:06.109Z,35.43
2024-03-16T06:29:33.476Z,35.43
2024-03-16T06:32:10.024Z,35.25
2024-03-16T06:34:36.858Z,35.62
2024-03-16T06:37:04.486Z,35.60
2024-03-16T06:39:31.263Z,35.36
2024-03-16T06:41:58.227Z,35.47
2024-03-16T06:44:24.989Z,35.34
2024-03-16T06:46:51.699Z,35.41
2024-03-16T06:49:18.624Z,35.54
2024-03-16T06:51:45.401Z,35.28
2024-03-16T06:54:13.618Z,35.54
2024-03-16T06:56:40.731Z,35.59
2024-03-16T06:59:07.400Z,35.36
2024-03-16T07:01:34.099Z,35.28
2024-03-16T07:04:00.961Z,35.44
2024-03-16T07:06:27.543Z,35.54
2024-03-16T07:08:54.234Z,35.49
2024-03-16T07:11:21.177Z,35.79
2024-03-16T07:13:47.929Z,35.54
2024-03-16T07:16:16.233Z,35.44
2024-03-16T07:18:44.577Z,35.63
2024-03-16T07:21:11.652Z,36.17
2024-03-16T07:23:38.388Z,36.69
2024-03-16T07:26:06.888Z,36.72
2024-03-16T07:28:35.552Z,37.06
2024-03-16T07:31:04.048Z,37.12
2024-03-16T07:33:31.399Z,36.83
2024-03-16T07:35:59.462Z,37.03
2024-03-16T07:38:26.158Z,36.63
2024-03-16T07:40:53.339Z,36.75
2024-03-16T07:43:21.566Z,36.38
2024-03-16T07:45:51.602Z,36.41
2024-03-16T07:48:18.572Z,36.51
2024-03-16T07:50:45.189Z,36.57
2024-03-16T07:53:12.268Z,36.62
2024-03-16T07:55:39.583Z,36.64
2024-03-16T07:58:06.270Z,36.44
2024-03-16T08:00:33.040Z,36.43
2024-03-16T08:02:59.915Z,36.34
2024-03-16T08:05:26.534Z,36.30
2024-03-16T08:07:53.230Z,36.11
2024-03-16T08:10:20.030Z,36.47
2024-03-16T08:12:47.007Z,36.59
2024-03-16T08:15:14.273Z,36.25
2024-03-16T08:17:40.984Z,36.51
2024-03-16T08:20:09.465Z,36.44
2024-03-16T08:22:36.318Z,36.45
2024-03-16T08:25:03.232Z,36.67
2024-03-16T08:27:33.464Z,36.88
2024-03-16T08:30:02.318Z,36.92
2024-03-16T08:32:30.750Z,36.53
2024-03-16T08:34:58.068Z,36.58
2024-03-16T08:37:25.358Z,36.76
2024-03-16T08:39:52.216Z,36.76
2024-03-16T08:42:18.848Z,36.67
2024-03-16T08:44:45.565Z,36.57
2024-03-16T08:47:12.225Z,36.97
2024-03-16T08:49:38.828Z,37.72
2024-03-16T08:52:05.589Z,38.26
2024-03-16T08:54:33.826Z,38.57
2024-03-16T08:57:01.599Z,38.96
2024-03-16T08:59:29.081Z,38.76
2024-03-16T09:01:55.928Z,38.66
2024-03-16T09:04:22.824Z,39.09
2024-03-16T09:06:49.406Z,39.10
2024-03-16T09:09:17.553Z,39.31
2024-03-16T09:11:44.758Z,39.50
2024-03-16T09:14:11.662Z,39.42
2024-03-16T09:16:41.919Z,39.92
2024-03-16T09:19:09.153Z,39.82
2024-03-16T09:21:36.061Z,39.50
2024-03-16T09:24:02.781Z,39.75
2024-03-16T09:26:29.435Z,39.57
2024-03-16T09:28:56.426Z,39.41
2024-03-16T09:31:26.661Z,39.28
2024-03-16T09:33:53.703Z,39.26
2024-03-16T09:36:20.942Z,39.37
2024-03-16T09:38:48.801Z,39.40
2024-03-16T09:41:19.622Z,39.74
